Terminal Aerodrome Forecast
Issued by NWS

Home | Current Version | Previous Version | Text Only | Print | Product List | Glossary On
Versions: 1 2 3 4 5 6 7 8 9 10 11 12 13
109
FTUS44 KEPZ 071132
TAFDMN
TAF
KDMN 071132Z 0712/0812 31004KT P6SM BKN250
     FM071400 05006KT P6SM BKN250
     FM080300 34005KT P6SM SCT250
     FM080800 05012KT P6SM SCT250=

USA.gov is the U.S. government's official web portal to all federal, state and local government web resources and services.